Time;durP1;ratioP1;P1;durP2;ratioP2;P2;SDS_P1;SDS_P2;PMS_P1;PMS_P2;Temp;Humidity;BMP_temperature;BMP_pressure;BME280_temperature;BME280_humidity;BME280_pressure;Samples;Min_cycle;Max_cycle;Signal;HPM_P1;HPM_P2
2023/06/02 00:03:30;;;;;;;0.95;0.85;;;21.30;52.60;;;;;;8433194;28;20035;-50
2023/06/02 00:07:31;;;;;;;1.00;0.90;;;21.30;52.60;;;;;;8433590;28;20748;-52
2023/06/02 00:11:34;;;;;;;0.68;0.65;;;21.30;52.60;;;;;;8432352;28;20385;-51
2023/06/02 00:15:35;;;;;;;0.70;0.70;;;21.30;52.60;;;;;;8433613;28;20024;-51
2023/06/02 00:19:37;;;;;;;;;;;21.30;52.60;;;;;;8432385;28;20035;-51
2023/06/02 00:23:37;;;;;;;0.70;0.65;;;21.30;52.60;;;;;;8433312;28;19999;-51
2023/06/02 00:27:38;;;;;;;0.70;0.70;;;21.30;52.60;;;;;;8431716;28;20477;-50
2023/06/02 00:31:39;;;;;;;0.80;0.70;;;21.30;52.60;;;;;;8432849;28;20035;-51
2023/06/02 00:35:39;;;;;;;1.63;0.80;;;21.40;52.60;;;;;;8431000;28;20057;-50
2023/06/02 00:39:40;;;;;;;0.70;0.70;;;21.30;52.60;;;;;;8432629;28;20108;-52
2023/06/02 00:43:41;;;;;;;0.98;0.85;;;21.30;52.60;;;;;;8432381;28;20362;-50
2023/06/02 00:47:41;;;;;;;0.90;0.90;;;21.30;52.60;;;;;;8432023;28;20020;-50
2023/06/02 00:51:42;;;;;;;0.80;0.70;;;21.30;52.60;;;;;;8432246;28;20035;-52
2023/06/02 00:55:44;;;;;;;0.70;0.70;;;21.30;52.70;;;;;;8430951;28;20039;-51
2023/06/02 00:59:47;;;;;;;0.73;0.73;;;21.30;52.70;;;;;;8432168;28;20028;-51
2023/06/02 01:03:50;;;;;;;0.70;0.70;;;21.30;52.70;;;;;;8412633;28;20024;-52
2023/06/02 01:07:58;;;;;;;0.80;0.80;;;21.30;52.70;;;;;;8431738;28;20031;-52
2023/06/02 01:11:59;;;;;;;0.60;0.60;;;21.30;52.70;;;;;;8431026;28;20038;-51
2023/06/02 01:16:00;;;;;;;;;;;21.30;52.70;;;;;;8431520;28;20059;-51
2023/06/02 01:20:08;;;;;;;0.60;0.60;;;21.30;52.70;;;;;;8430731;28;19904;-50
2023/06/02 01:24:09;;;;;;;0.80;0.77;;;21.30;52.70;;;;;;8411411;28;20083;-52
2023/06/02 01:28:10;;;;;;;;;;;21.30;52.70;;;;;;8431703;28;20020;-50
2023/06/02 01:32:22;;;;;;;0.70;0.70;;;21.30;52.70;;;;;;8429795;28;20403;-51
2023/06/02 01:36:27;;;;;;;0.60;0.60;;;21.30;52.70;;;;;;8430706;28;20044;-51
2023/06/02 01:40:29;;;;;;;0.80;0.80;;;21.30;52.70;;;;;;8429033;28;20500;-51
2023/06/02 01:44:31;;;;;;;0.80;0.80;;;21.30;52.70;;;;;;8428629;28;20031;-49
2023/06/02 01:48:32;;;;;;;0.95;0.73;;;21.30;52.70;;;;;;8428441;28;20473;-52
2023/06/02 01:52:32;;;;;;;0.73;0.70;;;21.30;52.70;;;;;;8428306;28;20439;-52
2023/06/02 01:56:33;;;;;;;0.80;0.80;;;21.30;52.70;;;;;;8428313;28;20047;-49
2023/06/02 02:00:33;;;;;;;0.57;0.57;;;21.30;52.70;;;;;;8427765;28;20092;-50
2023/06/02 02:04:34;;;;;;;0.95;0.70;;;21.30;52.70;;;;;;8428193;28;20056;-50
2023/06/02 02:08:35;;;;;;;0.70;0.70;;;21.30;52.70;;;;;;8427695;28;20093;-50
2023/06/02 02:12:36;;;;;;;0.80;0.80;;;21.30;52.70;;;;;;8428121;28;20039;-50
2023/06/02 02:16:36;;;;;;;0.98;0.80;;;21.30;52.70;;;;;;8427387;28;20063;-49
2023/06/02 02:20:40;;;;;;;0.77;0.73;;;21.30;52.70;;;;;;8428993;28;20067;-51
2023/06/02 02:24:41;;;;;;;0.73;0.73;;;21.30;52.70;;;;;;8428262;28;20381;-50
2023/06/02 02:28:41;;;;;;;0.70;0.70;;;21.30;52.70;;;;;;8428899;28;20060;-51
2023/06/02 02:32:43;;;;;;;0.70;0.70;;;21.30;52.70;;;;;;8428652;28;20028;-51
2023/06/02 02:36:44;;;;;;;0.77;0.77;;;21.30;52.80;;;;;;8428372;28;20035;-51
2023/06/02 02:40:45;;;;;;;1.08;0.93;;;21.20;52.70;;;;;;8428548;28;20028;-51
2023/06/02 02:44:46;;;;;;;1.13;0.93;;;21.30;52.70;;;;;;8427748;28;20103;-50
2023/06/02 02:48:46;;;;;;;0.90;0.90;;;21.30;52.80;;;;;;8428240;28;20039;-50
2023/06/02 02:52:47;;;;;;;1.27;0.93;;;21.30;52.80;;;;;;8427680;28;20793;-52
2023/06/02 02:56:48;;;;;;;0.75;0.75;;;21.30;52.70;;;;;;8429289;28;20024;-51
2023/06/02 03:00:48;;;;;;;0.80;0.80;;;21.30;52.70;;;;;;8432483;28;20031;-51
2023/06/02 03:04:51;;;;;;;0.63;0.63;;;21.30;52.70;;;;;;8436532;28;20436;-52
2023/06/02 03:08:52;;;;;;;0.85;0.75;;;21.30;52.70;;;;;;8416289;28;20467;-48
2023/06/02 03:12:52;;;;;;;1.00;0.80;;;21.30;52.70;;;;;;8433944;28;20043;-52
2023/06/02 03:16:54;;;;;;;0.93;0.70;;;21.30;52.70;;;;;;8435001;28;20027;-50
2023/06/02 03:20:58;;;;;;;0.88;0.80;;;21.30;52.70;;;;;;8434056;28;20479;-51
2023/06/02 03:24:58;;;;;;;0.68;0.68;;;21.30;52.70;;;;;;8434672;28;20012;-52
2023/06/02 03:28:59;;;;;;;1.02;0.95;;;21.30;52.70;;;;;;8433443;28;20153;-50
2023/06/02 03:33:00;;;;;;;0.80;0.80;;;21.30;52.70;;;;;;8434841;28;20032;-51
2023/06/02 03:37:01;;;;;;;0.82;0.68;;;21.30;52.70;;;;;;8433152;28;20050;-51
2023/06/02 03:41:01;;;;;;;;;;;21.30;52.70;;;;;;8435313;28;20020;-53
2023/06/02 03:45:03;;;;;;;0.60;0.60;;;21.30;52.70;;;;;;8432953;28;19911;-51
2023/06/02 03:49:03;;;;;;;;;;;21.30;52.70;;;;;;8434696;28;20032;-52
2023/06/02 03:53:05;;;;;;;0.60;0.60;;;21.30;52.70;;;;;;8433544;28;20358;-51
2023/06/02 03:57:06;;;;;;;0.80;0.80;;;21.30;52.70;;;;;;8433362;28;20032;-50
2023/06/02 04:01:06;;;;;;;1.00;0.70;;;21.30;52.70;;;;;;8434085;28;20038;-51
2023/06/02 04:05:07;;;;;;;1.00;0.90;;;21.30;52.70;;;;;;8432229;28;20059;-50
2023/06/02 04:09:12;;;;;;;0.93;0.82;;;21.20;52.70;;;;;;8433440;28;20022;-51
2023/06/02 04:13:12;;;;;;;0.90;0.80;;;21.20;52.80;;;;;;8432092;28;20039;-52
2023/06/02 04:17:13;;;;;;;0.70;0.70;;;21.20;52.80;;;;;;8433736;28;20099;-51
2023/06/02 04:21:14;;;;;;;0.75;0.75;;;21.20;52.80;;;;;;8431814;28;20085;-52
2023/06/02 04:25:14;;;;;;;0.73;0.73;;;21.20;52.80;;;;;;8433046;28;20089;-51
2023/06/02 04:29:16;;;;;;;1.02;0.77;;;21.20;52.80;;;;;;8432218;28;20038;-49
2023/06/02 04:33:18;;;;;;;0.70;0.70;;;21.20;52.80;;;;;;8432859;28;20115;-51
2023/06/02 04:37:19;;;;;;;1.10;0.90;;;21.20;52.80;;;;;;8432243;28;20016;-52
2023/06/02 04:41:22;;;;;;;0.80;0.70;;;21.20;52.80;;;;;;8432928;28;20739;-51
2023/06/02 04:45:23;;;;;;;0.80;0.80;;;21.20;52.80;;;;;;8414229;28;20055;-51
2023/06/02 04:49:24;;;;;;;0.77;0.70;;;21.20;52.80;;;;;;8431176;28;20024;-52
2023/06/02 04:53:25;;;;;;;0.75;0.75;;;21.20;52.80;;;;;;8432268;28;20043;-51
2023/06/02 04:57:25;;;;;;;0.68;0.68;;;21.20;52.80;;;;;;8430775;28;20020;-51
2023/06/02 05:01:28;;;;;;;0.50;0.50;;;21.20;52.80;;;;;;8432642;28;20028;-51
2023/06/02 05:05:28;;;;;;;0.80;0.73;;;21.20;52.80;;;;;;8430091;28;20117;-51
2023/06/02 05:09:29;;;;;;;0.70;0.70;;;21.20;52.80;;;;;;8431925;28;20020;-50
2023/06/02 05:13:30;;;;;;;0.85;0.85;;;21.20;52.80;;;;;;8431058;28;20505;-50
2023/06/02 05:17:31;;;;;;;0.85;0.85;;;21.20;52.80;;;;;;8431034;28;20381;-51
2023/06/02 05:21:32;;;;;;;0.88;0.80;;;21.20;52.80;;;;;;8430802;28;20418;-52
2023/06/02 05:25:32;;;;;;;0.73;0.73;;;21.20;52.80;;;;;;8430086;28;20445;-51
2023/06/02 05:29:33;;;;;;;1.13;0.85;;;21.20;52.80;;;;;;8431302;28;20024;-51
2023/06/02 05:33:34;;;;;;;0.70;0.70;;;21.20;52.80;;;;;;8429978;28;20111;-51
2023/06/02 05:37:35;;;;;;;0.75;0.75;;;21.20;52.80;;;;;;8430757;28;20467;-51
2023/06/02 05:41:35;;;;;;;1.27;1.17;;;21.20;52.80;;;;;;8429955;28;20051;-52
2023/06/02 05:45:36;;;;;;;0.80;0.70;;;21.20;52.80;;;;;;8430924;28;20032;-52
2023/06/02 05:49:36;;;;;;;1.30;1.00;;;21.20;52.80;;;;;;8429191;28;20047;-51
2023/06/02 05:53:37;;;;;;;1.02;0.68;;;21.20;52.90;;;;;;8430547;28;20286;-52
2023/06/02 05:57:38;;;;;;;1.00;0.90;;;21.20;52.90;;;;;;8429572;28;20222;-50
2023/06/02 06:01:38;;;;;;;0.73;0.73;;;21.20;52.90;;;;;;8429618;28;20039;-51
2023/06/02 06:05:39;;;;;;;0.93;0.90;;;21.20;52.90;;;;;;8429997;28;20048;-51
2023/06/02 06:09:40;;;;;;;0.70;0.70;;;21.20;52.80;;;;;;8428874;28;20024;-53
2023/06/02 06:13:41;;;;;;;1.08;0.90;;;21.20;52.80;;;;;;8411816;28;20039;-51
2023/06/02 06:17:49;;;;;;;1.02;0.82;;;21.20;52.80;;;;;;8428537;28;20028;-53
2023/06/02 06:21:50;;;;;;;0.80;0.80;;;21.20;52.90;;;;;;8429745;28;20577;-51
2023/06/02 06:25:50;;;;;;;0.90;0.80;;;21.20;52.80;;;;;;8428084;28;20370;-49
2023/06/02 06:29:51;;;;;;;0.80;0.80;;;21.20;52.80;;;;;;8429623;28;20016;-52
2023/06/02 06:33:52;;;;;;;0.70;0.60;;;21.20;52.80;;;;;;8428185;28;20030;-50
2023/06/02 06:37:53;;;;;;;1.08;0.80;;;21.20;52.80;;;;;;8428661;28;20076;-51
2023/06/02 06:41:53;;;;;;;0.80;0.80;;;21.20;52.80;;;;;;8428987;28;20028;-50
2023/06/02 06:45:54;;;;;;;1.77;1.00;;;21.20;52.80;;;;;;8428711;28;20474;-50
2023/06/02 06:49:55;;;;;;;0.70;0.70;;;21.20;52.80;;;;;;8427939;28;20039;-50
2023/06/02 06:53:55;;;;;;;1.13;0.70;;;21.20;52.90;;;;;;8427492;28;20055;-50
2023/06/02 06:57:56;;;;;;;0.82;0.82;;;21.20;52.80;;;;;;8427726;28;20077;-51
2023/06/02 07:01:56;;;;;;;1.23;0.80;;;21.20;52.80;;;;;;8426964;28;20110;-52
2023/06/02 07:05:58;;;;;;;1.05;0.90;;;21.20;52.80;;;;;;8427647;28;20459;-51
2023/06/02 07:09:59;;;;;;;1.00;0.85;;;21.20;52.90;;;;;;8427169;28;20028;-51
2023/06/02 07:13:59;;;;;;;1.05;0.90;;;21.20;52.80;;;;;;8427703;28;20067;-50
2023/06/02 07:18:00;;;;;;;0.98;0.82;;;21.20;52.80;;;;;;8427058;28;20028;-50
2023/06/02 07:22:01;;;;;;;0.82;0.77;;;21.20;52.90;;;;;;8427211;28;20489;-51
2023/06/02 07:26:01;;;;;;;1.20;1.10;;;21.20;52.90;;;;;;8427619;28;20043;-50
2023/06/02 07:30:03;;;;;;;0.98;0.85;;;21.20;52.90;;;;;;8429151;28;20048;-51
2023/06/02 07:34:04;;;;;;;1.00;0.75;;;21.10;52.90;;;;;;8428636;28;20024;-52
2023/06/02 07:38:04;;;;;;;1.17;0.82;;;21.20;53.40;;;;;;8427183;28;20033;-53
2023/06/02 07:42:05;;;;;;;0.80;0.77;;;21.20;52.90;;;;;;8429027;28;20445;-52
2023/06/02 07:46:06;;;;;;;1.00;0.88;;;21.20;52.90;;;;;;8430413;28;20099;-51
2023/06/02 07:50:07;;;;;;;0.80;0.80;;;21.20;52.90;;;;;;8434560;28;20592;-51
2023/06/02 07:54:08;;;;;;;0.60;0.60;;;21.20;52.90;;;;;;8414736;28;20465;-50
2023/06/02 07:58:09;;;;;;;1.48;1.10;;;21.20;52.90;;;;;;8434245;28;20046;-52
2023/06/02 08:02:09;;;;;;;1.00;0.90;;;21.20;52.90;;;;;;8433679;28;20051;-51
2023/06/02 08:06:10;;;;;;;0.95;0.95;;;21.20;52.90;;;;;;8433180;28;20513;-51
2023/06/02 08:10:11;;;;;;;1.00;0.90;;;21.20;52.90;;;;;;8433529;28;20039;-51
2023/06/02 08:14:13;;;;;;;;;;;21.20;52.90;;;;;;8432916;28;20039;-49
2023/06/02 08:18:15;;;;;;;2.60;1.23;;;21.20;52.90;;;;;;8433812;28;19908;-49
2023/06/02 08:22:15;;;;;;;0.80;0.75;;;21.20;52.90;;;;;;8431669;28;20470;-51
2023/06/02 08:26:17;;;;;;;0.93;0.82;;;21.20;52.90;;;;;;8433342;28;20040;-51
2023/06/02 08:30:19;;;;;;;1.30;1.00;;;21.20;52.90;;;;;;8431753;28;20036;-51
2023/06/02 08:34:20;;;;;;;;;;;21.20;52.90;;;;;;8433459;28;20120;-50
2023/06/02 08:38:21;;;;;;;0.80;0.80;;;21.20;52.90;;;;;;8431520;28;20361;-51
2023/06/02 08:42:22;;;;;;;1.33;1.02;;;21.20;52.90;;;;;;8432563;28;20401;-49
2023/06/02 08:46:23;;;;;;;1.42;0.80;;;21.20;52.90;;;;;;8432146;28;20035;-51
2023/06/02 08:50:28;;;;;;;1.23;0.95;;;21.20;52.90;;;;;;8431781;28;20036;-49
2023/06/02 08:54:29;;;;;;;1.33;0.80;;;21.20;52.90;;;;;;8432150;28;20035;-51
2023/06/02 08:58:31;;;;;;;0.80;0.80;;;21.20;52.90;;;;;;8430012;28;20575;-50
2023/06/02 09:02:32;;;;;;;1.48;1.02;;;21.20;52.90;;;;;;8431786;28;20032;-50
2023/06/02 09:06:32;;;;;;;0.70;0.60;;;21.20;53.00;;;;;;8430364;28;20056;-51
2023/06/02 09:10:36;;;;;;;0.90;0.75;;;21.20;53.00;;;;;;8432454;28;20036;-51
2023/06/02 09:14:38;;;;;;;1.13;0.90;;;21.10;52.90;;;;;;8430008;28;20036;-51
2023/06/02 09:18:39;;;;;;;1.10;0.95;;;21.10;52.90;;;;;;8431761;28;20024;-50
2023/06/02 09:22:56;;;;;;;1.13;0.90;;;21.10;52.90;;;;;;8430580;28;20032;-51
2023/06/02 09:26:56;;;;;;;1.02;0.90;;;21.20;52.90;;;;;;8429704;28;20044;-51
2023/06/02 09:31:04;;;;;;;1.15;0.93;;;21.20;52.90;;;;;;8431347;28;20065;-51
2023/06/02 09:35:05;;;;;;;0.80;0.80;;;21.20;52.90;;;;;;8429537;28;20036;-51
2023/06/02 09:39:08;;;;;;;0.70;0.70;;;21.20;52.90;;;;;;8430841;28;20043;-51
2023/06/02 09:43:11;;;;;;;0.73;0.70;;;21.20;52.90;;;;;;8429542;28;20024;-50
2023/06/02 09:47:20;;;;;;;0.82;0.82;;;21.20;52.90;;;;;;8446332;28;20084;-51
2023/06/02 09:51:24;;;;;;;0.82;0.70;;;21.20;52.90;;;;;;8411751;28;20105;-51
2023/06/02 09:55:25;;;;;;;1.05;0.98;;;21.20;52.90;;;;;;8429240;28;20039;-51
2023/06/02 09:59:29;;;;;;;1.42;0.93;;;21.10;52.80;;;;;;8411914;28;20024;-51
2023/06/02 10:03:30;;;;;;;1.25;1.00;;;21.20;52.90;;;;;;8428981;28;20035;-53
2023/06/02 10:08:00;;;;;;;0.85;0.77;;;21.20;52.90;;;;;;8429854;28;20056;-51
2023/06/02 10:12:25;;;;;;;0.80;0.80;;;21.20;52.90;;;;;;8429200;28;20446;-50
2023/06/02 10:16:44;;;;;;;1.60;0.88;;;21.20;52.90;;;;;;8428327;28;20722;-53
2023/06/02 10:20:57;;;;;;;1.23;0.63;;;21.20;52.90;;;;;;8445679;28;20040;-52
2023/06/02 10:25:06;;;;;;;0.77;0.77;;;21.20;52.90;;;;;;8429057;28;20024;-51
2023/06/02 10:29:08;;;;;;;1.58;0.90;;;21.20;52.90;;;;;;8428837;28;20020;-53
2023/06/02 10:33:09;;;;;;;1.17;1.00;;;21.20;52.80;;;;;;8429381;28;20032;-51
2023/06/02 10:37:10;;;;;;;0.80;0.80;;;21.20;52.90;;;;;;8428251;28;20040;-49
2023/06/02 10:41:12;;;;;;;0.80;0.80;;;21.20;52.90;;;;;;8429601;28;20392;-50
2023/06/02 10:45:22;;;;;;;1.30;0.93;;;21.20;52.90;;;;;;8427620;28;20040;-50
2023/06/02 10:49:54;;;;;;;1.10;0.88;;;21.20;53.00;;;;;;8429647;28;20027;-50
2023/06/02 10:54:07;;;;;;;1.00;0.88;;;21.20;53.00;;;;;;8427982;28;20035;-49
2023/06/02 10:58:12;;;;;;;1.52;1.02;;;21.10;52.90;;;;;;8426502;28;20077;-48
2023/06/02 11:02:41;;;;;;;0.90;0.80;;;21.20;52.90;;;;;;8426459;28;20055;-50
2023/06/02 11:06:42;;;;;;;0.82;0.80;;;21.20;52.90;;;;;;8426921;28;20097;-52
2023/06/02 11:10:43;;;;;;;1.15;0.80;;;21.20;52.90;;;;;;8428362;28;20075;-51
2023/06/02 11:15:02;;;;;;;1.00;0.80;;;21.20;52.90;;;;;;8428781;28;20032;-51
2023/06/02 11:19:03;;;;;;;1.50;0.93;;;21.20;52.90;;;;;;8427688;28;20274;-51
2023/06/02 11:23:05;;;;;;;0.77;0.68;;;21.20;52.80;;;;;;8435500;28;20031;-51
2023/06/02 11:27:06;;;;;;;0.85;0.82;;;21.20;52.90;;;;;;8433682;28;20032;-51
2023/06/02 11:31:08;;;;;;;0.98;0.85;;;21.20;52.80;;;;;;8435827;28;20048;-50
2023/06/02 11:35:10;;;;;;;0.85;0.80;;;21.20;52.80;;;;;;8434367;28;20468;-51
2023/06/02 11:39:11;;;;;;;1.10;0.77;;;21.20;52.80;;;;;;8434081;28;20028;-51
2023/06/02 11:43:20;;;;;;;1.02;0.93;;;21.20;52.80;;;;;;8435129;28;20024;-52
2023/06/02 11:47:21;;;;;;;0.80;0.70;;;21.20;52.80;;;;;;8433288;28;20397;-51
2023/06/02 11:51:22;;;;;;;1.00;0.70;;;21.20;52.80;;;;;;8434029;28;20028;-52
2023/06/02 11:55:32;;;;;;;;;;;21.20;52.80;;;;;;8433672;28;20024;-49
2023/06/02 11:59:33;;;;;;;1.17;0.85;;;21.20;52.80;;;;;;8434294;28;19911;-49
2023/06/02 12:03:34;;;;;;;1.02;0.80;;;21.20;52.80;;;;;;8433449;28;20063;-52
2023/06/02 12:07:35;;;;;;;1.10;0.90;;;21.20;52.80;;;;;;8415170;28;20680;-50
2023/06/02 12:11:36;;;;;;;1.00;0.90;;;21.20;52.80;;;;;;8433988;28;20046;-52
2023/06/02 12:15:37;;;;;;;0.73;0.73;;;21.20;52.80;;;;;;8431890;28;20465;-52
2023/06/02 12:19:38;;;;;;;0.80;0.70;;;21.20;52.80;;;;;;8433282;28;20032;-50
2023/06/02 12:23:44;;;;;;;0.80;0.80;;;21.20;52.90;;;;;;8432278;28;20032;-52
2023/06/02 12:27:46;;;;;;;0.80;0.80;;;21.20;52.90;;;;;;8433314;28;20038;-51
2023/06/02 12:31:46;;;;;;;0.70;0.70;;;21.20;52.90;;;;;;8430465;28;20431;-52
2023/06/02 12:35:47;;;;;;;0.90;0.80;;;21.20;52.90;;;;;;8433241;28;20032;-50
2023/06/02 12:39:48;;;;;;;1.02;0.93;;;21.20;52.80;;;;;;8431960;28;20074;-50
2023/06/02 12:43:48;;;;;;;0.80;0.80;;;21.20;52.80;;;;;;8414679;28;20032;-52
2023/06/02 12:47:52;;;;;;;1.08;0.70;;;21.20;52.80;;;;;;8431943;28;20504;-51
2023/06/02 12:51:52;;;;;;;0.85;0.80;;;21.20;52.80;;;;;;8431865;28;20549;-51
2023/06/02 12:55:53;;;;;;;1.05;0.95;;;21.20;52.80;;;;;;8432141;28;20024;-51
2023/06/02 12:59:54;;;;;;;0.77;0.77;;;21.20;52.80;;;;;;8430901;28;20031;-49
2023/06/02 13:03:55;;;;;;;0.70;0.70;;;21.20;52.80;;;;;;8431974;28;20032;-52
2023/06/02 13:07:56;;;;;;;0.80;0.80;;;21.30;52.80;;;;;;8430605;28;20124;-51
2023/06/02 13:11:56;;;;;;;1.00;0.90;;;21.20;52.70;;;;;;8414268;28;20093;-52
2023/06/02 13:15:57;;;;;;;1.00;0.85;;;21.30;52.80;;;;;;8430323;28;20042;-49
2023/06/02 13:19:58;;;;;;;0.90;0.90;;;21.30;52.70;;;;;;8431552;28;20027;-49
2023/06/02 13:23:59;;;;;;;0.93;0.90;;;21.30;52.70;;;;;;8431126;28;20469;-51
2023/06/02 13:28:00;;;;;;;1.05;0.77;;;21.30;52.70;;;;;;8430598;28;20460;-50
2023/06/02 13:32:00;;;;;;;;;;;21.30;52.70;;;;;;8431552;28;20035;-52
2023/06/02 13:36:02;;;;;;;0.90;0.87;;;21.30;52.60;;;;;;8431375;28;19986;-50
2023/06/02 13:40:06;;;;;;;0.80;0.80;;;21.30;52.60;;;;;;8430733;28;20035;-50
2023/06/02 13:44:11;;;;;;;1.00;0.80;;;21.30;52.50;;;;;;8429129;28;20016;-51
2023/06/02 13:48:12;;;;;;;0.70;0.70;;;21.30;52.50;;;;;;8430754;28;20020;-51
2023/06/02 13:52:12;;;;;;;0.87;0.87;;;21.30;52.60;;;;;;8429091;28;20047;-50
2023/06/02 13:56:13;;;;;;;1.00;0.90;;;21.30;52.60;;;;;;8430541;28;20296;-50
2023/06/02 14:00:15;;;;;;;0.70;0.60;;;21.30;52.60;;;;;;8428911;28;20028;-51
2023/06/02 14:04:15;;;;;;;0.73;0.73;;;21.30;52.60;;;;;;8429646;28;20058;-51
2023/06/02 14:08:17;;;;;;;0.85;0.85;;;21.30;52.60;;;;;;8429517;28;20495;-50
2023/06/02 14:12:17;;;;;;;;;;;21.30;52.70;;;;;;8455550;28;20400;-51
2023/06/02 14:16:18;;;;;;;0.80;0.80;;;21.30;52.60;;;;;;8463575;28;19927;-51
2023/06/02 14:20:19;;;;;;;1.00;0.80;;;21.30;52.60;;;;;;8443999;28;20043;-51
2023/06/02 14:24:19;;;;;;;0.80;0.80;;;21.30;52.50;;;;;;8463145;28;20032;-52
2023/06/02 14:28:20;;;;;;;1.00;0.80;;;21.40;52.50;;;;;;8462495;28;20532;-52
2023/06/02 14:32:20;;;;;;;0.80;0.80;;;21.40;52.50;;;;;;8463036;28;20039;-52
2023/06/02 14:36:21;;;;;;;0.90;0.80;;;21.40;52.50;;;;;;8461704;28;20024;-52
2023/06/02 14:40:22;;;;;;;1.00;0.75;;;21.40;52.40;;;;;;8453335;28;20050;-52
2023/06/02 14:44:23;;;;;;;1.10;0.90;;;21.40;52.30;;;;;;8428381;28;20024;-50
2023/06/02 14:48:27;;;;;;;0.95;0.80;;;21.40;52.30;;;;;;8429004;28;20036;-50
2023/06/02 14:52:27;;;;;;;1.15;0.80;;;21.40;52.30;;;;;;8428235;28;20027;-50
2023/06/02 14:56:28;;;;;;;0.80;0.80;;;21.40;52.40;;;;;;8433829;28;20035;-51
2023/06/02 15:00:28;;;;;;;0.80;0.80;;;21.40;52.40;;;;;;8417684;28;20020;-52
2023/06/02 15:04:29;;;;;;;1.08;0.70;;;21.40;52.40;;;;;;8434776;28;20128;-51
2023/06/02 15:08:30;;;;;;;0.70;0.70;;;21.40;52.40;;;;;;8435815;28;20032;-52
2023/06/02 15:12:30;;;;;;;1.00;0.90;;;21.40;52.40;;;;;;8434423;28;20024;-51
2023/06/02 15:16:31;;;;;;;0.95;0.70;;;21.40;52.40;;;;;;8435564;28;20024;-51
2023/06/02 15:20:32;;;;;;;1.17;1.08;;;21.40;52.50;;;;;;8433701;28;20107;-51
2023/06/02 15:24:32;;;;;;;0.93;0.80;;;21.40;52.50;;;;;;8434978;28;20312;-51
2023/06/02 15:28:33;;;;;;;1.00;0.80;;;21.30;52.60;;;;;;8434602;28;20032;-50
2023/06/02 15:32:34;;;;;;;0.93;0.93;;;21.30;52.60;;;;;;8434239;28;20484;-50
2023/06/02 15:36:35;;;;;;;0.80;0.80;;;21.30;52.60;;;;;;8434185;28;20028;-51
2023/06/02 15:40:35;;;;;;;;;;;21.30;52.70;;;;;;8434743;28;20036;-50
2023/06/02 15:44:36;;;;;;;1.07;0.80;;;21.30;52.70;;;;;;8434773;28;19992;-52
2023/06/02 15:48:37;;;;;;;1.05;0.90;;;21.30;52.70;;;;;;8432980;28;20024;-51
2023/06/02 15:52:37;;;;;;;0.70;0.70;;;21.30;52.70;;;;;;8434431;28;20115;-53
2023/06/02 15:56:38;;;;;;;0.95;0.77;;;21.30;52.70;;;;;;8432772;28;20047;-50
2023/06/02 16:00:38;;;;;;;0.75;0.70;;;21.30;52.70;;;;;;8434138;28;20024;-51
2023/06/02 16:04:39;;;;;;;0.82;0.73;;;21.30;52.70;;;;;;8448136;28;20564;-51
2023/06/02 16:08:40;;;;;;;0.80;0.70;;;21.30;52.70;;;;;;8433916;28;20080;-51
2023/06/02 16:12:40;;;;;;;0.60;0.60;;;21.30;52.70;;;;;;8433257;28;20032;-51
2023/06/02 16:16:41;;;;;;;0.60;0.60;;;21.30;52.70;;;;;;8432804;28;20388;-51
2023/06/02 16:20:42;;;;;;;0.82;0.82;;;21.30;52.70;;;;;;8432802;28;20024;-51
2023/06/02 16:24:42;;;;;;;0.70;0.70;;;21.30;52.70;;;;;;8432692;28;20107;-49
2023/06/02 16:28:43;;;;;;;0.80;0.80;;;21.30;52.60;;;;;;8433195;28;20035;-50
2023/06/02 16:32:44;;;;;;;0.75;0.75;;;21.30;52.60;;;;;;8431530;28;20024;-52
2023/06/02 16:36:45;;;;;;;;;;;21.30;52.70;;;;;;8433394;28;20081;-52
2023/06/02 16:40:46;;;;;;;1.75;0.95;;;21.30;52.70;;;;;;8431717;28;19908;-52
2023/06/02 16:44:47;;;;;;;0.60;0.60;;;21.30;52.60;;;;;;8432856;28;20032;-50
2023/06/02 16:48:48;;;;;;;1.02;0.90;;;21.30;52.70;;;;;;8431256;28;20039;-50
2023/06/02 16:52:49;;;;;;;;;;;21.30;52.70;;;;;;8433028;28;20032;-53
2023/06/02 16:56:49;;;;;;;0.77;0.73;;;21.30;52.70;;;;;;8413698;28;19908;-51
2023/06/02 17:00:50;;;;;;;1.20;0.70;;;21.30;52.70;;;;;;8431520;28;20039;-51
2023/06/02 17:04:51;;;;;;;1.23;0.88;;;21.30;52.70;;;;;;8431431;28;20105;-51
2023/06/02 17:08:53;;;;;;;1.08;0.80;;;21.30;52.70;;;;;;8431239;28;20071;-53
2023/06/02 17:12:54;;;;;;;0.98;0.80;;;21.30;52.70;;;;;;8431765;28;20042;-52
2023/06/02 17:16:55;;;;;;;0.75;0.70;;;21.30;52.70;;;;;;8429887;28;20453;-53
2023/06/02 17:20:55;;;;;;;1.13;0.88;;;21.30;52.70;;;;;;8431651;28;20396;-51
2023/06/02 17:24:56;;;;;;;1.15;0.80;;;21.30;52.80;;;;;;8429956;28;20085;-50
2023/06/02 17:28:57;;;;;;;0.88;0.88;;;21.30;52.70;;;;;;8413348;28;20290;-50
2023/06/02 17:32:58;;;;;;;0.98;0.82;;;21.30;52.80;;;;;;8429884;28;20430;-51
2023/06/02 17:36:58;;;;;;;0.98;0.80;;;21.30;52.70;;;;;;8431100;28;20108;-51
2023/06/02 17:40:59;;;;;;;0.90;0.85;;;21.30;52.70;;;;;;8430546;28;20532;-50
2023/06/02 17:45:00;;;;;;;0.93;0.80;;;21.30;52.70;;;;;;8430918;28;20376;-50
2023/06/02 17:49:01;;;;;;;0.70;0.70;;;21.30;52.70;;;;;;8430381;28;20038;-51
2023/06/02 17:53:01;;;;;;;1.05;0.95;;;21.30;52.70;;;;;;8429408;28;20085;-50
2023/06/02 17:57:04;;;;;;;1.40;0.77;;;21.30;52.70;;;;;;8430692;28;20035;-52
2023/06/02 18:01:05;;;;;;;1.00;0.85;;;21.30;52.70;;;;;;8429171;28;20094;-49
2023/06/02 18:05:07;;;;;;;0.90;0.80;;;21.30;52.70;;;;;;8429659;28;20146;-49
2023/06/02 18:09:07;;;;;;;0.70;0.70;;;21.30;52.70;;;;;;8429097;28;20032;-50
2023/06/02 18:13:08;;;;;;;0.82;0.82;;;21.30;52.70;;;;;;8430579;28;20552;-52
2023/06/02 18:17:09;;;;;;;0.80;0.77;;;21.30;52.70;;;;;;8428805;28;20063;-52
2023/06/02 18:21:10;;;;;;;1.23;0.80;;;21.30;52.70;;;;;;8430051;28;20028;-52
2023/06/02 18:25:12;;;;;;;0.77;0.77;;;21.30;52.70;;;;;;8429026;28;20067;-50
2023/06/02 18:29:12;;;;;;;0.70;0.70;;;21.30;52.70;;;;;;8429532;28;20035;-52
2023/06/02 18:33:13;;;;;;;0.73;0.73;;;21.30;52.70;;;;;;8429636;28;20032;-50
2023/06/02 18:37:14;;;;;;;0.77;0.77;;;21.30;52.70;;;;;;8428014;28;20024;-52
2023/06/02 18:41:14;;;;;;;1.02;0.93;;;21.30;52.80;;;;;;8412122;28;20032;-52
2023/06/02 18:45:15;;;;;;;0.80;0.80;;;21.30;52.80;;;;;;8427776;28;20086;-52
2023/06/02 18:49:16;;;;;;;1.05;0.95;;;21.30;52.80;;;;;;8428088;28;20039;-49
2023/06/02 18:53:17;;;;;;;1.00;0.90;;;21.30;52.80;;;;;;8426622;28;20040;-48
2023/06/02 18:57:18;;;;;;;1.35;1.10;;;21.20;52.80;;;;;;8408364;28;20723;-51
2023/06/02 19:01:19;;;;;;;0.95;0.90;;;21.30;52.80;;;;;;8426129;28;20020;-51
2023/06/02 19:05:20;;;;;;;0.80;0.80;;;21.30;52.80;;;;;;8429039;28;20059;-50
2023/06/02 19:09:21;;;;;;;1.02;0.93;;;21.30;52.80;;;;;;8428416;28;20039;-51
2023/06/02 19:13:21;;;;;;;0.93;0.90;;;21.30;52.80;;;;;;8427966;28;20053;-51
2023/06/02 19:17:22;;;;;;;0.90;0.90;;;21.20;52.80;;;;;;8428872;28;20039;-52
2023/06/02 19:21:22;;;;;;;1.15;0.93;;;21.20;52.80;;;;;;8427209;28;20024;-51
2023/06/02 19:25:23;;;;;;;1.17;1.08;;;21.20;52.80;;;;;;8428575;28;20028;-51
2023/06/02 19:29:24;;;;;;;0.80;0.80;;;21.30;52.80;;;;;;8427185;28;20033;-52
2023/06/02 19:33:25;;;;;;;0.70;0.70;;;21.30;52.90;;;;;;8444060;28;20105;-52
2023/06/02 19:37:25;;;;;;;0.60;0.60;;;21.30;52.80;;;;;;8427096;28;20393;-52
2023/06/02 19:41:26;;;;;;;0.95;0.85;;;21.30;52.80;;;;;;8431452;28;20127;-51
2023/06/02 19:45:27;;;;;;;0.63;0.50;;;21.30;52.80;;;;;;8433782;28;20035;-51
2023/06/02 19:49:27;;;;;;;0.90;0.90;;;21.30;52.80;;;;;;8435461;28;20024;-52
2023/06/02 19:53:28;;;;;;;0.75;0.70;;;21.30;52.80;;;;;;8433574;28;20052;-53
2023/06/02 19:57:29;;;;;;;0.75;0.75;;;21.30;52.90;;;;;;8433606;28;20028;-52
2023/06/02 20:01:30;;;;;;;0.65;0.60;;;21.30;52.80;;;;;;8434259;28;20052;-51
2023/06/02 20:05:30;;;;;;;1.02;0.70;;;21.30;52.90;;;;;;8432386;28;20059;-50
2023/06/02 20:09:31;;;;;;;0.70;0.60;;;21.30;52.90;;;;;;8434247;28;20020;-52
2023/06/02 20:13:32;;;;;;;1.05;0.90;;;21.30;52.90;;;;;;8432331;28;20079;-51
2023/06/02 20:17:33;;;;;;;0.70;0.70;;;21.30;52.90;;;;;;8433729;28;20035;-50
2023/06/02 20:21:34;;;;;;;0.73;0.70;;;21.30;52.90;;;;;;8432294;28;20028;-52
2023/06/02 20:25:35;;;;;;;0.80;0.70;;;21.30;52.90;;;;;;8433258;28;20546;-52
2023/06/02 20:29:36;;;;;;;1.00;0.90;;;21.20;52.90;;;;;;8432421;28;20039;-51
2023/06/02 20:33:36;;;;;;;0.60;0.60;;;21.30;52.90;;;;;;8432669;28;20040;-51
2023/06/02 20:37:37;;;;;;;0.88;0.80;;;21.20;52.90;;;;;;8432403;28;20078;-51
2023/06/02 20:41:38;;;;;;;0.77;0.70;;;21.20;52.90;;;;;;8432328;28;20031;-50
2023/06/02 20:45:38;;;;;;;0.93;0.88;;;21.20;53.00;;;;;;8432188;28;20032;-52
2023/06/02 20:49:39;;;;;;;0.63;0.63;;;21.20;53.00;;;;;;8431219;28;20039;-52
2023/06/02 20:53:40;;;;;;;0.80;0.80;;;21.20;52.90;;;;;;8447168;28;20031;-51
2023/06/02 20:57:41;;;;;;;0.80;0.80;;;21.20;53.00;;;;;;8430455;28;20032;-51
2023/06/02 21:01:41;;;;;;;;;;;21.20;52.90;;;;;;8433117;28;20024;-50
2023/06/02 21:05:42;;;;;;;0.70;0.70;;;21.20;52.90;;;;;;8430347;28;19920;-51